Time;durP1;ratioP1;P1;durP2;ratioP2;P2;SDS_P1;SDS_P2;PMS_P1;PMS_P2;Temp;Humidity;BMP_temperature;BMP_pressure;BME280_temperature;BME280_humidity;BME280_pressure;Samples;Min_cycle;Max_cycle;Signal;HPM_P1;HPM_P2
2022/03/22 00:02:07;;;;;;;;;;;;;;;3.65;75.88;102414.88;1807430;79;20310;-63
2022/03/22 00:05:13;;;;;;;;;;;;;;;3.65;75.85;102414.88;1807353;79;20289;-62
2022/03/22 00:08:18;;;;;;;;;;;;;;;3.63;75.82;102411.88;1807283;79;20249;-64
2022/03/22 00:11:23;;;;;;;;;;;;;;;3.62;75.77;102422.29;1807199;78;20482;-64
2022/03/22 00:14:29;;;;;;;;;;;;;;;3.59;75.74;102416.57;1806910;78;20360;-64
2022/03/22 00:17:35;;;;;;;;;;;;;;;3.56;75.64;102409.97;1806892;79;20241;-65
2022/03/22 00:20:42;;;;;;;;;;;;;;;3.56;75.60;102415.85;1807215;79;20201;-63
2022/03/22 00:23:47;;;;;;;;;;;;;;;3.54;75.58;102416.41;1807093;79;20296;-63
2022/03/22 00:26:53;;;;;;;;;;;;;;;3.53;75.48;102411.48;1807427;79;20581;-63
2022/03/22 00:29:58;;;;;;;;;;;;;;;3.52;75.59;102407.51;1807349;79;20202;-63
2022/03/22 00:33:05;;;;;;;;;;;;;;;3.53;75.62;102414.66;1806758;79;20241;-64
2022/03/22 00:36:14;;;;;;;;;;;;;;;3.52;75.58;102415.13;1807124;79;20201;-63
2022/03/22 00:39:18;;;;;;;;;;;;;;;3.54;75.60;102413.23;1806830;79;20182;-64
2022/03/22 00:42:24;;;;;;;;;;;;;;;3.56;75.54;102412.68;1807465;79;20198;-64
2022/03/22 00:45:35;;;;;;;;;;;;;;;3.55;75.27;102410.91;1807127;78;20193;-63
2022/03/22 00:48:38;;;;;;;;;;;;;;;3.54;75.27;102415.94;1807323;79;20249;-63
2022/03/22 00:51:46;;;;;;;;;;;;;;;3.54;75.14;102406.92;1805971;79;20312;-63
2022/03/22 00:54:52;;;;;;;;;;;;;;;3.53;75.03;102418.26;1788977;78;20261;-63
2022/03/22 00:57:57;;;;;;;;;;;;;;;3.50;74.88;102415.72;1807354;79;20190;-63
2022/03/22 01:01:02;;;;;;;;;;;;;;;3.47;74.75;102419.94;1807064;79;20224;-63
2022/03/22 01:04:09;;;;;;;;;;;;;;;3.44;74.67;102417.37;1805876;79;20241;-62
2022/03/22 01:07:13;;;;;;;;;;;;;;;3.44;74.62;102422.78;1806931;79;20205;-63
2022/03/22 01:10:18;;;;;;;;;;;;;;;3.42;74.72;102416.59;1806779;78;20261;-63
2022/03/22 01:13:23;;;;;;;;;;;;;;;3.41;74.65;102422.95;1807228;79;20217;-63
2022/03/22 01:16:28;;;;;;;;;;;;;;;3.41;74.52;102426.16;1807168;78;20197;-63
2022/03/22 01:19:32;;;;;;;;;;;;;;;3.37;74.42;102421.84;1788712;78;20197;-63
2022/03/22 01:22:38;;;;;;;;;;;;;;;3.33;74.38;102427.88;1806918;79;20189;-63
2022/03/22 01:25:44;;;;;;;;;;;;;;;3.31;74.39;102424.88;1807077;79;20514;-63
2022/03/22 01:28:48;;;;;;;;;;;;;;;3.28;74.40;102425.92;1807099;79;20265;-64
2022/03/22 01:31:55;;;;;;;;;;;;;;;3.28;74.49;102443.52;1807209;79;20538;-63
2022/03/22 01:34:59;;;;;;;;;;;;;;;3.25;74.38;102436.87;1807483;79;20194;-64
2022/03/22 01:38:08;;;;;;;;;;;;;;;3.23;74.38;102430.70;1806398;79;20288;-64
2022/03/22 01:41:13;;;;;;;;;;;;;;;3.21;74.42;102440.71;1807282;78;20258;-63
2022/03/22 01:44:18;;;;;;;;;;;;;;;3.20;74.43;102445.73;1807508;79;20292;-63
2022/03/22 01:47:28;;;;;;;;;;;;;;;3.20;74.37;102436.27;1788969;79;20209;-64
2022/03/22 01:50:32;;;;;;;;;;;;;;;3.18;74.24;102441.34;1807147;78;20201;-64
2022/03/22 01:53:37;;;;;;;;;;;;;;;3.13;74.19;102443.41;1806153;79;20252;-64
2022/03/22 01:56:43;;;;;;;;;;;;;;;3.12;74.19;102444.36;1807467;79;20173;-64
2022/03/22 01:59:50;;;;;;;;;;;;;;;3.09;74.11;102442.20;1807386;78;20332;-63
2022/03/22 02:06:21;;;;;;;;;;;;;;;3.08;73.84;102452.26;1807432;78;20482;-64
2022/03/22 02:09:25;;;;;;;;;;;;;;;3.03;73.61;102451.11;1806946;78;20197;-63
2022/03/22 02:12:30;;;;;;;;;;;;;;;2.98;73.57;102459.95;1807127;79;20249;-63
2022/03/22 02:15:35;;;;;;;;;;;;;;;2.95;73.48;102465.02;1807376;78;20210;-63
2022/03/22 02:18:42;;;;;;;;;;;;;;;2.90;73.29;102462.17;1807116;79;20197;-64
2022/03/22 02:21:47;;;;;;;;;;;;;;;2.85;73.20;102476.39;1807524;79;20273;-64
2022/03/22 02:24:52;;;;;;;;;;;;;;;2.80;73.17;102477.09;1807388;78;20201;-63
2022/03/22 02:27:58;;;;;;;;;;;;;;;2.74;73.15;102482.80;1807406;79;20213;-63
2022/03/22 02:31:02;;;;;;;;;;;;;;;2.69;73.09;102497.02;1807552;78;20522;-62
2022/03/22 02:34:07;;;;;;;;;;;;;;;2.63;73.04;102507.64;1806553;79;20221;-63
2022/03/22 02:37:11;;;;;;;;;;;;;;;2.56;73.03;102494.50;1807195;79;20197;-64
2022/03/22 02:40:18;;;;;;;;;;;;;;;2.51;73.10;102493.83;1773826;80;20341;-64
2022/03/22 02:43:22;;;;;;;;;;;;;;;2.47;73.16;102490.89;1772749;80;20279;-64
2022/03/22 02:46:29;;;;;;;;;;;;;;;2.42;73.24;102492.47;1781198;80;20174;-62
2022/03/22 02:49:34;;;;;;;;;;;;;;;2.40;73.28;102495.70;1768602;81;20186;-62
2022/03/22 02:52:39;;;;;;;;;;;;;;;2.38;73.32;102494.04;1779079;79;20224;-63
2022/03/22 02:55:43;;;;;;;;;;;;;;;2.36;73.36;102498.13;1763887;81;20465;-64
2022/03/22 02:58:49;;;;;;;;;;;;;;;2.36;73.40;102495.93;1763843;81;20207;-64
2022/03/22 03:01:54;;;;;;;;;;;;;;;2.36;73.41;102499.98;1763450;81;20216;-63
2022/03/22 03:05:00;;;;;;;;;;;;;;;2.34;73.39;102501.88;1763422;81;20244;-63
2022/03/22 03:08:06;;;;;;;;;;;;;;;2.34;73.39;102508.63;1763732;81;20243;-63
2022/03/22 03:11:12;;;;;;;;;;;;;;;2.34;73.46;102504.58;1763698;81;20560;-63
2022/03/22 03:17:39;;;;;;;;;;;;;;;2.37;73.36;102519.30;1763712;81;20251;-63
2022/03/22 03:20:44;;;;;;;;;;;;;;;2.37;73.35;102516.12;1763089;81;20200;-63
2022/03/22 03:23:48;;;;;;;;;;;;;;;2.36;73.32;102517.55;1763210;81;20255;-63
2022/03/22 03:26:53;;;;;;;;;;;;;;;2.36;73.30;102532.41;1762574;81;20208;-63
2022/03/22 03:29:57;;;;;;;;;;;;;;;2.36;73.26;102533.77;1763177;81;20212;-63
2022/03/22 03:33:03;;;;;;;;;;;;;;;2.34;73.25;102526.19;1763157;81;20200;-62
2022/03/22 03:36:08;;;;;;;;;;;;;;;2.33;73.24;102532.56;1763761;81;20299;-61
2022/03/22 03:39:13;;;;;;;;;;;;;;;2.31;73.24;102538.50;1763769;81;20208;-62
2022/03/22 03:42:17;;;;;;;;;;;;;;;2.30;73.28;102531.35;1763646;81;20204;-62
2022/03/22 03:48:45;;;;;;;;;;;;;;;2.28;73.24;102534.59;1763791;81;20189;-63
2022/03/22 03:51:48;;;;;;;;;;;;;;;2.28;73.36;102544.05;1763722;81;20235;-62
2022/03/22 03:54:53;;;;;;;;;;;;;;;2.27;73.22;102547.21;1775240;79;20209;-62
2022/03/22 03:57:58;;;;;;;;;;;;;;;2.27;73.15;102552.62;1807221;79;20549;-61
2022/03/22 04:01:03;;;;;;;;;;;;;;;2.26;73.14;102553.58;1807371;79;20232;-63
2022/03/22 04:04:08;;;;;;;;;;;;;;;2.26;73.04;102564.39;1807399;79;20272;-62
2022/03/22 04:07:17;;;;;;;;;;;;;;;2.22;72.82;102558.70;1806241;79;20193;-62
2022/03/22 04:10:20;;;;;;;;;;;;;;;2.20;72.86;102567.84;1807039;79;20186;-61
2022/03/22 04:13:25;;;;;;;;;;;;;;;2.21;72.94;102570.93;1806779;79;20185;-62
2022/03/22 04:16:30;;;;;;;;;;;;;;;2.25;73.02;102572.56;1807312;78;20249;-62
2022/03/22 04:19:35;;;;;;;;;;;;;;;2.29;73.00;102575.52;1807376;79;20216;-62
2022/03/22 04:22:41;;;;;;;;;;;;;;;2.33;72.97;102583.91;1807366;79;20228;-62
2022/03/22 04:25:46;;;;;;;;;;;;;;;2.39;72.92;102585.86;1807400;79;20186;-61
2022/03/22 04:35:37;;;;;;;;;;;;;;;2.55;72.49;102600.89;1806453;79;20256;-62
2022/03/22 04:38:41;;;;;;;;;;;;;;;2.60;72.36;102606.47;1806860;79;20198;-61
2022/03/22 04:41:50;;;;;;;;;;;;;;;2.66;72.25;102595.86;1806859;79;20316;-56
2022/03/22 04:44:55;;;;;;;;;;;;;;;2.70;72.06;102603.76;1753472;81;20184;-57
2022/03/22 04:48:01;;;;;;;;;;;;;;;2.78;72.06;102601.57;1703197;84;20209;-56
2022/03/22 04:57:53;;;;;;;;;;;;;;;3.10;71.75;102614.91;1674460;85;20183;-58
2022/03/22 05:00:58;;;;;;;;;;;;;;;3.22;71.56;102612.09;1712121;82;20215;-56
2022/03/22 05:04:04;;;;;;;;;;;;;;;3.30;71.34;102622.93;1723771;82;20214;-58
2022/03/22 05:07:08;;;;;;;;;;;;;;;3.40;71.15;102633.72;1722869;82;20226;-57
2022/03/22 05:10:15;;;;;;;;;;;;;;;3.49;71.00;102640.03;1715740;82;20214;-56
2022/03/22 05:13:27;;;;;;;;;;;;;;;3.56;70.93;102641.49;1709069;84;20238;-58
2022/03/22 05:16:35;;;;;;;;;;;;;;;3.65;70.98;102652.32;1708990;82;20203;-58
2022/03/22 05:19:40;;;;;;;;;;;;;;;3.77;70.85;102651.73;1719283;81;20230;-56
2022/03/22 05:22:45;;;;;;;;;;;;;;;3.85;70.47;102650.40;1733481;81;20238;-57
2022/03/22 05:25:52;;;;;;;;;;;;;;;3.91;70.33;102656.85;1736753;81;20194;-57
2022/03/22 05:28:56;;;;;;;;;;;;;;;4.01;70.22;102663.54;1737124;83;20267;-55
2022/03/22 05:32:01;;;;;;;;;;;;;;;4.11;69.98;102658.52;1718737;82;20262;-56
2022/03/22 05:35:07;;;;;;;;;;;;;;;4.22;69.89;102665.62;1736938;83;20198;-56
2022/03/22 05:38:11;;;;;;;;;;;;;;;4.33;69.73;102660.51;1737203;83;20183;-56
2022/03/22 05:41:17;;;;;;;;;;;;;;;4.41;69.52;102663.23;1725401;81;20543;-57
2022/03/22 05:44:21;;;;;;;;;;;;;;;4.49;69.21;102673.20;1722481;82;20262;-56
2022/03/22 05:47:26;;;;;;;;;;;;;;;4.59;68.91;102678.55;1722253;82;20250;-55
2022/03/22 05:50:30;;;;;;;;;;;;;;;4.68;68.64;102688.50;1726310;81;20215;-56
2022/03/22 05:53:34;;;;;;;;;;;;;;;4.77;68.38;102688.89;1749397;81;20236;-56
2022/03/22 05:56:38;;;;;;;;;;;;;;;4.86;68.22;102692.92;1745211;79;20278;-56
2022/03/22 05:59:44;;;;;;;;;;;;;;;4.94;68.04;102702.88;1786834;79;20202;-57
2022/03/22 06:02:49;;;;;;;;;;;;;;;5.03;68.04;102697.83;1776454;79;20571;-57
2022/03/22 06:05:56;;;;;;;;;;;;;;;5.12;67.71;102700.53;1775497;79;20278;-58
2022/03/22 06:09:02;;;;;;;;;;;;;;;5.18;67.52;102704.26;1775495;81;20192;-57
2022/03/22 06:12:08;;;;;;;;;;;;;;;5.27;67.43;102710.53;1774916;81;20246;-57
2022/03/22 06:15:17;;;;;;;;;;;;;;;5.37;67.30;102707.23;1775009;79;20283;-58
2022/03/22 06:18:21;;;;;;;;;;;;;;;5.45;67.10;102714.47;1775018;81;20203;-56
2022/03/22 06:21:29;;;;;;;;;;;;;;;5.56;66.89;102715.22;1774315;79;20208;-56
2022/03/22 06:24:32;;;;;;;;;;;;;;;5.69;66.71;102718.99;1775454;79;20211;-57
2022/03/22 06:27:40;;;;;;;;;;;;;;;5.81;66.31;102708.77;1774644;81;20211;-58
2022/03/22 06:30:47;;;;;;;;;;;;;;;5.91;65.85;102721.75;1774266;81;20243;-56
2022/03/22 06:33:51;;;;;;;;;;;;;;;6.02;65.46;102721.15;1775026;81;20639;-56
2022/03/22 06:36:57;;;;;;;;;;;;;;;6.13;65.27;102734.99;1780156;79;20585;-58
2022/03/22 06:40:03;;;;;;;;;;;;;;;6.25;64.99;102734.76;1777452;79;20299;-57
2022/03/22 06:43:10;;;;;;;;;;;;;;;6.35;64.57;102737.30;1776446;79;20219;-56
2022/03/22 06:46:15;;;;;;;;;;;;;;;6.42;63.74;102743.67;1805233;79;20209;-59
2022/03/22 06:49:20;;;;;;;;;;;;;;;6.46;63.22;102745.22;1799759;78;20247;-57
2022/03/22 06:52:24;;;;;;;;;;;;;;;6.51;63.21;102751.28;1749169;81;20251;-57
2022/03/22 06:55:31;;;;;;;;;;;;;;;6.59;63.24;102744.00;1792448;79;20634;-56
2022/03/22 06:58:35;;;;;;;;;;;;;;;6.69;63.07;102743.84;1796866;79;20249;-57
2022/03/22 07:01:39;;;;;;;;;;;;;;;6.78;62.59;102742.80;1798733;78;20201;-56
2022/03/22 07:04:45;;;;;;;;;;;;;;;6.83;62.27;102751.56;1798252;79;20205;-58
2022/03/22 07:07:51;;;;;;;;;;;;;;;6.92;62.41;102750.98;1779475;78;20205;-56
2022/03/22 07:14:18;;;;;;;;;;;;;;;7.17;62.20;102753.05;1797790;79;20189;-57
2022/03/22 07:17:25;;;;;;;;;;;;;;;7.28;61.69;102750.52;1805349;79;20264;-58
2022/03/22 07:20:29;;;;;;;;;;;;;;;7.34;61.09;102746.06;1805270;78;20280;-59
2022/03/22 07:23:35;;;;;;;;;;;;;;;7.39;60.99;102747.51;1798817;79;20341;-58
2022/03/22 07:26:44;;;;;;;;;;;;;;;7.48;60.80;102741.46;1804297;79;20293;-58
2022/03/22 07:29:49;;;;;;;;;;;;;;;7.60;60.44;102750.70;1801878;79;20644;-58
2022/03/22 07:32:55;;;;;;;;;;;;;;;7.69;60.18;102751.97;1795025;79;20209;-60
2022/03/22 07:36:00;;;;;;;;;;;;;;;7.78;59.98;102752.25;1780968;79;20206;-56
2022/03/22 07:39:07;;;;;;;;;;;;;;;7.86;59.44;102741.72;1786732;78;20270;-54
2022/03/22 07:42:13;;;;;;;;;;;;;;;7.94;59.13;102749.38;1784072;79;20206;-55
2022/03/22 07:45:20;;;;;;;;;;;;;;;8.02;58.87;102742.94;1805254;79;20213;-55
2022/03/22 07:48:24;;;;;;;;;;;;;;;8.10;58.67;102748.28;1806096;79;20354;-56
2022/03/22 07:54:54;;;;;;;;;;;;;;;8.27;58.22;102755.34;1798123;79;20253;-56
2022/03/22 07:57:58;;;;;;;;;;;;;;;8.36;58.00;102751.98;1793750;79;20206;-56
2022/03/22 08:01:02;;;;;;;;;;;;;;;8.43;57.69;102749.24;1775343;79;20210;-55
2022/03/22 08:04:08;;;;;;;;;;;;;;;8.50;57.46;102751.95;1788144;80;20213;-56
2022/03/22 08:07:12;;;;;;;;;;;;;;;8.57;57.31;102741.86;1789161;80;20267;-57
2022/03/22 08:10:17;;;;;;;;;;;;;;;8.67;57.06;102741.59;1795131;79;20209;-57
2022/03/22 08:13:20;;;;;;;;;;;;;;;8.75;56.70;102746.55;1795179;79;20616;-57
2022/03/22 08:16:25;;;;;;;;;;;;;;;8.83;56.27;102747.73;1783645;80;20218;-58
2022/03/22 08:19:31;;;;;;;;;;;;;;;8.84;55.83;102748.63;1763420;80;20204;-56
2022/03/22 08:22:38;;;;;;;;;;;;;;;8.86;55.70;102750.25;1765093;80;20217;-57
2022/03/22 08:25:44;;;;;;;;;;;;;;;8.95;55.38;102756.95;1770962;79;20205;-56
2022/03/22 08:28:50;;;;;;;;;;;;;;;9.02;54.71;102750.08;1772475;80;20210;-58
2022/03/22 08:31:55;;;;;;;;;;;;;;;9.07;54.13;102753.34;1727140;83;20211;-59
2022/03/22 08:35:00;;;;;;;;;;;;;;;9.12;53.25;102742.95;1735857;82;20202;-58
2022/03/22 08:38:05;;;;;;;;;;;;;;;9.15;52.64;102752.81;1735155;83;20269;-59
2022/03/22 08:41:12;;;;;;;;;;;;;;;9.21;52.67;102749.64;1730948;82;20269;-57
2022/03/22 08:44:16;;;;;;;;;;;;;;;9.31;52.40;102746.64;1723699;82;20238;-58
2022/03/22 08:47:20;;;;;;;;;;;;;;;9.42;52.07;102746.74;1720373;82;20486;-58
2022/03/22 08:50:27;;;;;;;;;;;;;;;9.54;51.63;102754.93;1729195;81;20602;-59
2022/03/22 08:53:32;;;;;;;;;;;;;;;9.63;51.35;102751.52;1722291;81;20221;-59
2022/03/22 08:56:39;;;;;;;;;;;;;;;9.71;50.83;102744.11;1728485;83;20258;-59
2022/03/22 08:59:45;;;;;;;;;;;;;;;9.77;50.30;102747.27;1730763;81;20218;-59
2022/03/22 09:02:53;;;;;;;;;;;;;;;9.80;49.86;102744.30;1726564;82;20237;-61
2022/03/22 09:06:18;;;;;;;;;;;;;;;9.85;49.97;102743.95;1727157;82;20203;-60
2022/03/22 09:09:10;;;;;;;;;;;;;;;9.95;49.98;102741.81;1721126;82;20238;-58
2022/03/22 09:12:15;;;;;;;;;;;;;;;10.01;49.40;102739.98;1741248;80;20229;-59
2022/03/22 09:15:19;;;;;;;;;;;;;;;10.08;48.33;102735.84;1733778;81;20228;-59
2022/03/22 09:18:25;;;;;;;;;;;;;;;10.11;47.89;102736.09;1733562;82;20206;-62
2022/03/22 09:21:32;;;;;;;;;;;;;;;10.15;47.39;102739.84;1721928;82;20456;-59
2022/03/22 09:24:42;;;;;;;;;;;;;;;10.23;47.81;102744.73;1711694;81;20207;-60
2022/03/22 09:27:47;;;;;;;;;;;;;;;10.33;47.33;102742.56;1720493;82;20484;-59
2022/03/22 09:30:53;;;;;;;;;;;;;;;10.36;46.35;102739.59;1733220;82;20202;-59
2022/03/22 09:34:00;;;;;;;;;;;;;;;10.41;46.52;102737.38;1730229;82;20218;-59
2022/03/22 09:37:07;;;;;;;;;;;;;;;10.51;46.68;102744.39;1726512;82;20269;-59
2022/03/22 09:40:14;;;;;;;;;;;;;;;10.65;46.77;102736.47;1718549;82;20215;-60
2022/03/22 09:43:23;;;;;;;;;;;;;;;10.79;46.64;102738.52;1735305;82;20330;-58
2022/03/22 09:46:27;;;;;;;;;;;;;;;10.92;46.21;102739.30;1729508;82;20528;-60
2022/03/22 09:49:33;;;;;;;;;;;;;;;10.95;44.72;102736.81;1732974;81;20525;-58
2022/03/22 09:52:43;;;;;;;;;;;;;;;10.98;45.10;102731.08;1757314;81;20259;-58
2022/03/22 09:55:50;;;;;;;;;;;;;;;10.99;44.20;102730.11;1738265;81;20210;-62
2022/03/22 09:58:55;;;;;;;;;;;;;;;10.96;43.88;102735.31;1749489;81;20677;-59
2022/03/22 10:02:01;;;;;;;;;;;;;;;10.97;44.40;102726.13;1754810;78;20503;-58
2022/03/22 10:05:09;;;;;;;;;;;;;;;11.08;44.40;102724.77;1733824;81;20211;-59
2022/03/22 10:08:13;;;;;;;;;;;;;;;11.16;43.73;102717.30;1697081;83;20617;-59
2022/03/22 10:11:18;;;;;;;;;;;;;;;11.23;43.64;102724.02;1710250;83;20215;-58
2022/03/22 10:14:26;;;;;;;;;;;;;;;11.28;43.31;102709.44;1728504;81;20215;-60
2022/03/22 10:17:33;;;;;;;;;;;;;;;11.29;42.88;102721.66;1726661;82;20246;-58
2022/03/22 10:20:38;;;;;;;;;;;;;;;11.29;42.86;102707.94;1711193;82;20513;-59
2022/03/22 10:23:37;;;;;;;;;;;;;;;11.35;42.66;102719.78;1726683;82;20603;-58
2022/03/22 10:26:38;;;;;;;;;;;;;;;11.39;42.34;102712.19;1725275;83;20239;-59
2022/03/22 10:29:45;;;;;;;;;;;;;;;11.52;42.13;102709.70;1728369;81;20258;-58
2022/03/22 10:32:53;;;;;;;;;;;;;;;11.57;41.70;102706.09;1710679;82;20291;-58
2022/03/22 10:35:58;;;;;;;;;;;;;;;11.64;41.68;102697.75;1726810;81;20741;-59
2022/03/22 10:39:06;;;;;;;;;;;;;;;11.78;41.81;102703.48;1754986;81;20216;-60
2022/03/22 10:42:13;;;;;;;;;;;;;;;11.92;40.97;102694.97;1755226;81;20272;-57
2022/03/22 10:45:19;;;;;;;;;;;;;;;11.98;39.81;102694.45;1747658;81;20208;-58
2022/03/22 10:48:32;;;;;;;;;;;;;;;12.06;38.85;102672.72;1731582;81;20217;-59
2022/03/22 10:51:49;;;;;;;;;;;;;;;12.07;39.27;102685.43;1743258;81;20240;-58
2022/03/22 10:54:53;;;;;;;;;;;;;;;12.17;39.55;102685.03;1742437;81;20265;-63
2022/03/22 10:58:02;;;;;;;;;;;;;;;12.37;38.95;102685.57;1738117;81;20223;-62
2022/03/22 11:01:07;;;;;;;;;;;;;;;12.50;38.94;102682.14;1733543;81;20240;-65
2022/03/22 11:04:15;;;;;;;;;;;;;;;12.71;39.28;102669.79;1788334;79;20248;-66
2022/03/22 11:07:20;;;;;;;;;;;;;;;12.93;38.91;102675.14;1785679;79;20481;-59
2022/03/22 11:10:31;;;;;;;;;;;;;;;13.10;38.56;102669.05;1761757;79;20220;-60
2022/03/22 11:13:34;;;;;;;;;;;;;;;13.30;38.19;102669.01;1795306;79;20205;-61
2022/03/22 11:16:39;;;;;;;;;;;;;;;13.48;37.43;102665.98;1782668;78;20210;-60
2022/03/22 11:19:48;;;;;;;;;;;;;;;13.48;37.21;102665.10;1782488;80;20210;-60
2022/03/22 11:22:54;;;;;;;;;;;;;;;13.48;36.11;102656.35;1787506;80;20243;-61
2022/03/22 11:26:01;;;;;;;;;;;;;;;13.57;36.45;102657.91;1782986;80;20198;-60
2022/03/22 11:29:07;;;;;;;;;;;;;;;13.67;35.64;102654.16;1783700;80;20226;-62
2022/03/22 11:35:42;;;;;;;;;;;;;;;13.96;35.16;102655.11;1793530;80;20209;-61
2022/03/22 11:38:52;;;;;;;;;;;;;;;14.17;36.16;102653.61;1794342;80;20210;-60
2022/03/22 11:45:19;;;;;;;;;;;;;;;14.34;35.62;102640.02;1786060;80;20214;-60
2022/03/22 11:48:38;;;;;;;;;;;;;;;14.42;35.47;102642.04;1794805;80;20226;-60
2022/03/22 11:51:58;;;;;;;;;;;;;;;14.52;35.19;102636.02;1794213;80;20555;-58
2022/03/22 11:55:07;;;;;;;;;;;;;;;14.63;34.65;102628.97;1782827;78;20609;-60
2022/03/22 11:58:15;;;;;;;;;;;;;;;14.66;34.44;102624.53;1788853;79;20672;-59
2022/03/22 12:01:21;;;;;;;;;;;;;;;14.52;34.00;102624.50;1786629;79;20194;-60
2022/03/22 12:04:45;;;;;;;;;;;;;;;14.41;33.71;102627.38;1798931;77;20684;-60
2022/03/22 12:07:50;;;;;;;;;;;;;;;14.44;33.80;102624.36;1779320;78;20580;-59
2022/03/22 12:11:00;;;;;;;;;;;;;;;14.52;33.21;102607.95;1795785;78;20227;-56
2022/03/22 12:14:04;;;;;;;;;;;;;;;14.65;33.34;102609.87;1778742;79;20211;-61
2022/03/22 12:17:11;;;;;;;;;;;;;;;14.68;33.30;102601.30;1773327;81;20239;-61
2022/03/22 12:20:17;;;;;;;;;;;;;;;14.62;32.96;102598.26;1794735;79;20225;-60
2022/03/22 12:23:21;;;;;;;;;;;;;;;14.72;33.23;102597.24;1800445;79;20209;-61
2022/03/22 12:26:25;;;;;;;;;;;;;;;14.79;33.27;102597.52;1802008;79;20335;-60
2022/03/22 12:29:30;;;;;;;;;;;;;;;14.81;33.08;102587.19;1776537;79;20865;-60
2022/03/22 12:32:37;;;;;;;;;;;;;;;14.92;34.10;102589.26;1781203;79;20201;-63
2022/03/22 12:35:42;;;;;;;;;;;;;;;15.08;33.51;102590.53;1773948;79;20198;-60
2022/03/22 12:38:49;;;;;;;;;;;;;;;15.07;33.42;102586.02;1776716;79;20286;-61
2022/03/22 12:41:57;;;;;;;;;;;;;;;15.11;33.09;102589.69;1785791;79;20205;-59
2022/03/22 12:45:04;;;;;;;;;;;;;;;15.12;33.80;102584.55;1806965;78;20281;-61
2022/03/22 12:48:15;;;;;;;;;;;;;;;15.16;33.00;102589.27;1805884;79;20378;-60
2022/03/22 12:51:17;;;;;;;;;;;;;;;15.15;32.63;102588.88;1805960;79;20309;-59
2022/03/22 12:54:23;;;;;;;;;;;;;;;15.24;33.48;102590.22;1806365;79;20331;-60
2022/03/22 12:57:26;;;;;;;;;;;;;;;15.41;33.01;102592.73;1774100;81;20606;-62
2022/03/22 13:00:40;;;;;;;;;;;;;;;15.55;32.76;102595.84;1774529;81;20211;-62
2022/03/22 13:03:47;;;;;;;;;;;;;;;15.58;31.93;102585.87;1774149;81;20620;-60
2022/03/22 13:06:50;;;;;;;;;;;;;;;15.50;31.77;102580.25;1774380;81;20218;-59
2022/03/22 13:15:01;;;;;;;;;;;;;;;15.33;32.15;102583.80;1776522;79;20213;-59
2022/03/22 13:16:37;;;;;;;;;;;;;;;15.41;31.95;102581.69;1805348;79;20209;-61
2022/03/22 13:19:45;;;;;;;;;;;;;;;15.46;32.37;102582.94;1774056;81;20211;-62
2022/03/22 13:23:01;;;;;;;;;;;;;;;15.52;32.44;102575.45;1769164;79;20217;-62
2022/03/22 13:26:12;;;;;;;;;;;;;;;15.51;32.51;102579.22;1781844;79;20240;-61
2022/03/22 13:29:23;;;;;;;;;;;;;;;15.53;32.49;102575.80;1794900;79;20216;-62
2022/03/22 13:32:38;;;;;;;;;;;;;;;15.47;32.65;102568.64;1804951;79;20201;-60
2022/03/22 13:36:08;;;;;;;;;;;;;;;15.52;32.57;102561.64;1794269;78;20235;-62
2022/03/22 13:39:16;;;;;;;;;;;;;;;15.55;32.14;102566.86;1793091;79;20237;-61
2022/03/22 13:42:25;;;;;;;;;;;;;;;15.59;32.30;102563.25;1796066;78;20229;-62
2022/03/22 13:45:30;;;;;;;;;;;;;;;15.71;32.41;102562.90;1796045;79;20241;-62
2022/03/22 13:48:38;;;;;;;;;;;;;;;15.80;31.78;102557.81;1722788;81;20261;-61
2022/03/22 13:51:48;;;;;;;;;;;;;;;15.86;31.78;102560.44;1732024;81;20240;-59
2022/03/22 13:54:56;;;;;;;;;;;;;;;15.87;31.40;102560.81;1726226;82;20306;-61
2022/03/22 13:58:07;;;;;;;;;;;;;;;15.86;31.51;102557.67;1798064;79;20190;-61
2022/03/22 14:01:19;;;;;;;;;;;;;;;15.76;31.42;102556.36;1798852;79;20375;-62
2022/03/22 14:04:30;;;;;;;;;;;;;;;15.77;31.41;102552.59;1798022;79;20304;-60
2022/03/22 14:07:37;;;;;;;;;;;;;;;15.77;31.52;102546.20;1797264;80;20213;-60
2022/03/22 14:10:46;;;;;;;;;;;;;;;15.86;31.83;102548.89;1795091;80;20522;-60
2022/03/22 14:13:52;;;;;;;;;;;;;;;16.01;31.58;102545.06;1793921;80;20240;-60
2022/03/22 14:16:56;;;;;;;;;;;;;;;16.10;31.07;102542.22;1769936;80;20192;-61
2022/03/22 14:20:06;;;;;;;;;;;;;;;16.09;31.06;102545.98;1796353;80;20210;-57
2022/03/22 14:23:14;;;;;;;;;;;;;;;16.05;30.95;102542.32;1791241;80;20499;-61
2022/03/22 14:26:24;;;;;;;;;;;;;;;15.94;30.70;102550.84;1794452;79;20269;-61
2022/03/22 14:29:32;;;;;;;;;;;;;;;15.82;31.27;102541.95;1794195;79;20577;-61
2022/03/22 14:32:45;;;;;;;;;;;;;;;15.88;31.26;102542.70;1773114;79;20270;-62
2022/03/22 14:36:00;;;;;;;;;;;;;;;15.93;31.14;102545.86;1768726;81;20196;-62
2022/03/22 14:39:05;;;;;;;;;;;;;;;15.93;31.01;102541.72;1768819;81;20250;-62
2022/03/22 14:42:11;;;;;;;;;;;;;;;15.83;31.35;102540.91;1776087;80;20562;-61
2022/03/22 14:45:17;;;;;;;;;;;;;;;15.59;31.88;102537.89;1768948;81;20407;-62
2022/03/22 14:48:24;;;;;;;;;;;;;;;15.46;31.96;102538.77;1768211;81;20216;-62
2022/03/22 14:54:53;;;;;;;;;;;;;;;15.43;31.86;102534.95;1772614;80;20207;-61
2022/03/22 15:01:22;;;;;;;;;;;;;;;15.53;30.92;102535.77;1799150;80;20216;-59
2022/03/22 15:04:27;;;;;;;;;;;;;;;15.87;30.41;102544.23;1799495;80;20236;-61
2022/03/22 15:07:37;;;;;;;;;;;;;;;15.56;30.15;102534.06;1797816;79;20481;-61
2022/03/22 15:10:39;;;;;;;;;;;;;;;15.10;30.86;102540.17;1797412;79;20201;-61
2022/03/22 15:13:45;;;;;;;;;;;;;;;14.90;31.17;102541.64;1799119;79;20304;-61
2022/03/22 15:16:51;;;;;;;;;;;;;;;14.89;30.89;102540.41;1800044;79;20550;-60
2022/03/22 15:19:55;;;;;;;;;;;;;;;14.71;30.52;102543.62;1803264;79;20209;-65
2022/03/22 15:23:01;;;;;;;;;;;;;;;14.76;30.41;102543.52;1789415;79;20291;-65
2022/03/22 15:26:08;;;;;;;;;;;;;;;14.71;30.22;102541.72;1799168;79;20209;-63
2022/03/22 15:29:15;;;;;;;;;;;;;;;14.66;29.92;102541.82;1799302;79;20436;-64
2022/03/22 15:32:21;;;;;;;;;;;;;;;14.77;29.96;102548.53;1788189;79;20259;-64
2022/03/22 15:35:27;;;;;;;;;;;;;;;14.62;29.99;102551.39;1793463;79;20495;-65
2022/03/22 15:38:32;;;;;;;;;;;;;;;14.36;30.15;102546.17;1781660;79;20550;-65
2022/03/22 15:41:37;;;;;;;;;;;;;;;14.05;30.75;102551.48;1782876;79;20219;-65
2022/03/22 15:44:44;;;;;;;;;;;;;;;13.73;31.23;102548.97;1789510;79;20207;-64
2022/03/22 15:47:53;;;;;;;;;;;;;;;13.40;31.68;102550.73;1737225;82;20216;-64
2022/03/22 15:50:58;;;;;;;;;;;;;;;13.03;32.33;102553.22;1795119;79;20213;-64
2022/03/22 15:54:01;;;;;;;;;;;;;;;12.66;32.98;102555.27;1774620;79;20206;-65
2022/03/22 15:57:08;;;;;;;;;;;;;;;12.32;33.31;102553.23;1752869;81;20218;-63
2022/03/22 16:00:16;;;;;;;;;;;;;;;12.02;33.68;102549.05;1783245;79;20222;-64
2022/03/22 16:03:26;;;;;;;;;;;;;;;11.74;34.46;102553.30;1784061;79;20523;-64
2022/03/22 16:06:31;;;;;;;;;;;;;;;11.46;35.05;102557.10;1767052;81;20208;-65
2022/03/22 16:09:37;;;;;;;;;;;;;;;11.18;35.26;102554.40;1806693;78;20213;-65
2022/03/22 16:12:41;;;;;;;;;;;;;;;10.93;35.78;102557.42;1768393;81;20216;-64
2022/03/22 16:15:48;;;;;;;;;;;;;;;10.70;36.90;102563.03;1788336;79;20185;-63
2022/03/22 16:18:54;;;;;;;;;;;;;;;10.45;37.73;102560.88;1768008;81;20223;-65
2022/03/22 16:21:59;;;;;;;;;;;;;;;10.22;38.21;102560.47;1805785;79;20217;-62
2022/03/22 16:25:06;;;;;;;;;;;;;;;9.99;38.58;102563.23;1767217;81;20200;-62
2022/03/22 16:28:12;;;;;;;;;;;;;;;9.77;38.66;102559.89;1783170;79;20219;-63
2022/03/22 16:31:18;;;;;;;;;;;;;;;9.59;39.39;102553.59;1773842;81;20211;-63
2022/03/22 16:37:45;;;;;;;;;;;;;;;9.24;40.74;102558.10;1791580;79;20549;-61
2022/03/22 16:40:52;;;;;;;;;;;;;;;9.02;41.19;102555.58;1806040;79;20338;-63
2022/03/22 16:43:56;;;;;;;;;;;;;;;8.85;41.67;102556.44;1806287;79;20694;-63
2022/03/22 16:47:03;;;;;;;;;;;;;;;8.70;41.97;102568.01;1751088;82;20216;-63
2022/03/22 16:50:07;;;;;;;;;;;;;;;8.54;42.79;102567.36;1807414;79;20190;-62
2022/03/22 16:53:14;;;;;;;;;;;;;;;8.38;43.32;102571.27;1807328;79;20203;-63
2022/03/22 16:56:20;;;;;;;;;;;;;;;8.27;43.58;102562.97;1818234;78;20195;-63